Terminal Aerodrome Forecast
Issued by NWS

Home | Current Version | Previous Version | Text Only | Print | Product List | Glossary On
Versions: 1 2 3 4 5 6 7 8 9 10 11 12 13 14 15 16 17 18 19 20 21 22 23 24 25 26 27
000
FTUS45 KRIW 021100
TAFPNA
TAF
KPNA 021123Z 0212/0312 29007KT P6SM SCT050
     FM021900 29020G30KT P6SM SCT050
     FM030100 30010KT P6SM SCT070
     FM030900 VRB05KT P6SM FEW040
      AMD LTD TO CLD VIS AND WIND=

USA.gov is the U.S. government's official web portal to all federal, state and local government web resources and services.